Terminal Aerodrome Forecast
Issued by NWS

Home | Current Version | Previous Version | Text Only | Print | Product List | Glossary On
Versions: 1 2 3 4 5 6 7 8 9 10 11 12 13 14 15 16
217
FTUS42 KGSP 181127
TAFGMU
TAF
KGMU 181127Z 1812/1912 25008KT P6SM BKN150
     FM181500 27008KT P6SM SCT070
     FM182300 34005KT P6SM FEW250=

USA.gov is the U.S. government's official web portal to all federal, state and local government web resources and services.